Latest Weather Observations for Mangalore

IDV60801

Issued at 5:32 pm EST Tuesday 28 June 2016 (issued every 30 minutes, with the page automatically refreshed every 10 minutes)

About weather observations | Map of weather stations | Latest weather observations for VIC | Other Formats
Station Details ID: 088109 Name: MANGALORE AIRPORT Lat: -36.89 Lon: 145.19 Height: 140.8 m
Data from the previous 72 hours. | See also: Recent months at Mangalore
Date/Time
EST
Temp
°C
App
Temp
°C
Dew
Point
°C
Rel
Hum
%
Delta-T
°C
Wind Press
QNH
hPa
Press
MSL
hPa
Rain since
9am
mm
Dir  Spd
km/h
Gust
km/h
Spd
kts
Gust
kts
28/05:30pm 8.1 6.0 8.1 100 0.0 NE 9 11 5 6 1026.8 1027.0 0.0
28/05:00pm 8.1 5.2 8.1 100 0.0 NE 13 15 7 8 1026.6 1026.8 0.0
28/04:30pm 8.2 5.7 8.2 100 0.0 NNE 11 15 6 8 1026.4 1026.6 0.0
28/04:00pm 8.1 5.6 8.1 100 0.0 NNE 11 15 6 8 1026.4 1026.6 0.0
28/03:30pm 7.8 5.2 7.8 100 0.0 NE 11 15 6 8 1026.3 1026.5 0.0
28/03:00pm 7.7 4.7 7.7 100 0.0 NE 13 17 7 9 1026.2 1026.4 0.0
28/02:30pm 7.3 4.6 7.3 100 0.0 NNE 11 15 6 8 1026.0 1026.3 0.0
28/02:00pm 7.1 4.7 7.1 100 0.0 N 9 13 5 7 1026.2 1026.4 0.0
28/01:30pm 7.0 4.6 7.0 100 0.0 N 9 13 5 7 1026.2 1026.4 0.0
28/01:18pm 6.7 3.8 6.7 100 0.0 N 11 15 6 8 1026.2 1026.4 0.0
28/01:00pm 6.4 3.1 6.4 100 0.0 NNE 13 17 7 9 1026.3 1026.5 0.0
28/12:30pm 6.5 3.6 6.5 100 0.0 N 11 15 6 8 1026.4 1026.6 0.0
28/12:00pm 6.6 3.3 6.6 100 0.0 NNE 13 17 7 9 1026.4 1026.6 0.0
28/11:30am 6.7 3.8 6.7 100 0.0 N 11 13 6 7 1026.7 1026.9 0.0
28/11:00am 6.4 3.5 6.4 100 0.0 N 11 13 6 7 1026.8 1027.0 0.0
28/10:30am 6.3 3.0 6.3 100 0.0 NE 13 17 7 9 1026.6 1026.8 0.0
28/10:00am 6.0 2.2 6.0 100 0.0 NNE 15 17 8 9 1026.5 1026.7 0.0
28/09:30am 5.9 2.5 5.9 100 0.0 N 13 15 7 8 1026.2 1026.4 0.0
28/09:00am 5.4 2.3 5.4 100 0.0 N 11 15 6 8 1025.9 1026.2 0.0
28/08:30am 5.4 2.7 5.4 100 0.0 N 9 13 5 7 1025.5 1025.8 0.0
28/08:00am 5.2 2.8 5.2 100 0.0 ENE 7 9 4 5 1025.2 1025.5 0.0
28/07:30am 4.7 2.2 4.7 100 0.0 ENE 7 9 4 5 1025.0 1025.3 0.0
28/07:00am 4.2 1.8 4.2 100 0.0 ENE 6 7 3 4 1024.7 1025.0 0.0
28/06:30am 4.3 1.7 4.3 100 0.0 ENE 7 9 4 5 1024.3 1024.6 0.0
28/06:00am 5.0 2.7 5.0 100 0.0 ENE 6 6 3 3 1023.8 1024.1 0.0
28/05:30am 5.1 2.9 5.1 100 0.0 ENE 6 7 3 4 1023.6 1023.9 0.0
28/05:00am 4.9 3.8 4.9 100 0.0 CALM 0 0 0 0 1023.3 1023.6 0.0
28/04:30am 4.8 3.6 4.8 100 0.0 CALM 0 4 0 2 1023.2 1023.5 0.0
28/04:00am 4.7 3.5 4.7 100 0.0 CALM 0 0 0 0 1023.1 1023.4 0.0
28/03:30am 4.6 3.4 4.6 100 0.0 CALM 0 0 0 0 1023.1 1023.4 0.0
28/03:00am 4.6 2.3 4.6 100 0.0 ENE 6 7 3 4 1023.2 1023.5 0.0
28/02:30am 4.1 1.5 4.1 100 0.0 ENE 7 9 4 5 1023.0 1023.3 0.0
28/02:00am 2.8 0.1 2.7 99 0.0 ENE 6 11 3 6 1022.7 1023.0 0.0
28/01:36am 3.5 2.1 3.4 99 0.0 CALM 0 0 0 0 1022.6 1022.9 0.0
28/01:30am 3.8 2.4 3.7 99 0.0 CALM 0 0 0 0 1022.6 1022.9 0.0
28/01:00am 4.2 2.9 4.1 99 0.0 CALM 0 0 0 0 1022.7 1023.0 0.0
28/12:30am 3.6 0.9 3.5 99 0.0 ENE 7 9 4 5 1022.6 1022.9 0.0
28/12:29am 3.6 0.5 3.5 99 0.0 ENE 9 9 5 5 1022.6 1022.9 0.0
28/12:07am 3.4 1.6 3.3 99 0.0 ENE 2 6 1 3 1022.6 1022.9 0.0
28/12:02am 3.5 0.9 3.4 99 0.0 ENE 6 9 3 5 1022.5 1022.8 0.0
28/12:00am 3.8 1.1 3.7 99 0.0 ENE 7 9 4 5 1022.5 1022.8 0.0
 
Date/Time
EST
Temp
°C
App
Temp
°C
Dew
Point
°C
Rel
Hum
%
Delta-T
°C
Wind Press
QNH
hPa
Press
MSL
hPa
Rain since
9am
mm
Dir  Spd
km/h
Gust
km/h
Spd
kts
Gust
kts
27/11:30pm 4.0 2.7 3.9 99 0.0 CALM 0 0 0 0 1022.3 1022.6 0.0
27/11:17pm 4.9 3.7 4.8 99 0.0 CALM 0 0 0 0 1022.3 1022.6 0.0
27/11:00pm 5.7 3.6 5.6 99 0.0 ENE 6 6 3 3 1022.3 1022.6 0.0
27/10:30pm 5.0 2.5 4.9 99 0.0 ENE 7 11 4 6 1022.0 1022.3 0.0
27/10:13pm 5.6 2.9 5.5 99 0.0 ENE 9 11 5 6 1021.8 1022.1 0.0
27/10:00pm 7.0 5.1 6.9 99 0.0 ENE 6 9 3 5 1022.0 1022.3 0.0
27/09:30pm 7.5 5.6 7.4 99 0.0 ENE 7 7 4 4 1021.8 1022.1 0.0
27/09:00pm 7.6 5.3 7.5 99 0.0 ENE 9 9 5 5 1021.6 1021.9 0.0
27/08:30pm 8.0 6.3 7.7 98 0.1 ENE 6 7 3 4 1021.5 1021.8 0.0
27/08:00pm 8.2 5.9 7.6 96 0.3 ENE 9 11 5 6 1021.0 1021.2 0.0
27/07:30pm 8.3 6.3 7.2 93 0.5 ENE 7 9 4 5 1020.9 1021.1 0.0
27/07:00pm 8.4 6.0 7.0 91 0.7 ENE 9 13 5 7 1020.6 1020.8 0.0
27/06:30pm 8.7 6.6 6.8 88 0.9 NNE 7 9 4 5 1020.2 1020.4 0.0
27/06:00pm 8.3 5.8 6.6 89 0.8 NNE 9 9 5 5 1019.9 1020.1 0.0
27/05:30pm 8.5 5.8 5.6 82 1.3 NNE 9 9 5 5 1019.6 1019.8 0.0
27/05:00pm 9.6 6.6 6.0 78 1.7 NNE 11 13 6 7 1019.3 1019.5 0.0
27/04:30pm 10.0 7.7 5.8 75 1.9 NNW 7 9 4 5 1019.1 1019.3 0.0
27/04:00pm 10.0 7.3 5.6 74 2.0 NNW 9 11 5 6 1018.9 1019.1 0.0
27/03:30pm 10.3 8.0 5.5 72 2.2 W 7 11 4 6 1018.8 1019.0 0.0
27/03:00pm 10.3 7.2 5.7 73 2.1 NW 11 17 6 9 1018.5 1018.8 0.0
27/02:30pm 9.8 8.4 5.4 74 2.0 NNE 2 6 1 3 1018.4 1018.7 0.0
27/02:00pm 9.2 7.0 5.2 76 1.8 NNE 6 7 3 4 1018.4 1018.7 0.0
27/01:30pm 9.3 7.4 4.9 74 2.0 NNE 4 7 2 4 1018.4 1018.7 0.0
27/01:05pm 9.1 7.3 5.5 78 1.6 NW 4 7 2 4 1018.5 1018.8 0.0
27/01:00pm 8.7 7.2 5.1 78 1.6 NW 2 6 1 3 1018.6 1018.9 0.0
27/12:30pm 8.6 7.1 5.2 79 1.5 WNW 2 9 1 5 1018.8 1019.0 0.0
27/12:14pm 8.6 6.8 5.4 80 1.5 NNW 4 11 2 6 1019.0 1019.2 0.0
27/12:10pm 8.3 6.0 4.9 79 1.5 N 6 9 3 5 1019.1 1019.3 0.0
27/12:00pm 8.3 5.5 5.2 81 1.4 NNE 9 13 5 7 1019.1 1019.3 0.0
27/11:30am 7.9 5.5 5.2 83 1.2 N 7 13 4 7 1019.4 1019.6 0.0
27/11:01am 7.2 4.7 5.0 86 1.0 N 7 11 4 6 1019.3 1019.5 0.0
27/11:00am 7.3 4.9 5.1 86 1.0 N 7 11 4 6 1019.3 1019.5 0.0
27/10:31am 6.6 3.9 5.7 94 0.4 N 9 11 5 6 1019.5 1019.7 0.0
27/10:30am 6.5 3.8 5.6 94 0.4 N 9 11 5 6 1019.5 1019.7 0.0
27/10:00am 6.0 3.0 5.9 99 0.0 NE 11 13 6 7 1019.4 1019.6 0.0
27/09:30am 5.9 2.9 5.8 99 0.0 NE 11 13 6 7 1019.3 1019.5 0.0
27/09:03am 5.3 2.1 5.2 99 0.0 NE 11 13 6 7 1019.2 1019.4 0.0
27/09:00am 5.2 2.0 5.1 99 0.0 NNE 11 13 6 7 1019.1 1019.3 0.0
27/08:55am 5.1 2.3 5.0 99 0.0 NNE 9 13 5 7 1019.1 1019.3 0.0
27/08:30am 5.0 1.8 4.9 99 0.0 N 11 13 6 7 1019.0 1019.2 0.0
27/08:17am 5.0 2.7 4.9 99 0.0 N 6 9 3 5 1019.0 1019.2 0.0
27/08:00am 4.8 1.5 4.7 99 0.0 N 11 15 6 8 1018.5 1018.8 0.0
27/07:30am 4.9 1.6 4.8 99 0.0 ENE 11 13 6 7 1018.4 1018.7 0.0
27/07:00am 4.8 1.9 4.7 99 0.0 ENE 9 11 5 6 1018.5 1018.8 0.0
27/06:30am 4.9 2.4 4.8 99 0.0 ENE 7 9 4 5 1018.2 1018.5 0.0
27/06:00am 4.8 2.9 4.7 99 0.0 ENE 4 11 2 6 1018.0 1018.3 0.0
27/05:30am 4.8 2.3 4.7 99 0.0 ENE 7 9 4 5 1017.8 1018.1 0.0
27/05:00am 4.7 2.2 4.6 99 0.0 ENE 7 9 4 5 1017.5 1017.8 0.0
27/04:30am 4.6 2.1 4.5 99 0.0 ENE 7 7 4 4 1017.5 1017.8 0.0
27/04:00am 4.6 2.2 4.5 99 0.0 ENE 6 7 3 4 1017.7 1018.0 0.0
27/03:30am 4.6 1.7 4.5 99 0.0 ENE 9 11 5 6 1017.6 1017.9 0.0
27/03:00am 4.5 1.6 4.4 99 0.0 ENE 9 9 5 5 1017.6 1017.9 0.0
27/02:41am 4.4 3.1 4.3 99 0.0 CALM 0 0 0 0 1017.6 1017.9 0.0
27/02:30am 4.7 3.1 4.6 99 0.0 ENE 2 7 1 4 1017.6 1017.9 0.0
27/02:00am 4.7 2.7 4.6 99 0.0 ENE 4 7 2 4 1017.7 1018.0 0.0
27/01:53am 4.6 3.0 4.5 99 0.0 ENE 2 7 1 4 1017.7 1018.0 0.0
27/01:30am 4.2 1.6 4.1 99 0.0 ENE 7 9 4 5 1017.5 1017.8 0.0
27/01:05am 3.8 1.1 3.7 99 0.0 ENE 7 9 4 5 1017.5 1017.8 0.0
27/01:00am 3.9 1.2 3.8 99 0.0 ENE 7 9 4 5 1017.5 1017.8 0.0
27/12:30am 4.6 3.4 4.5 99 0.0 CALM 0 0 0 0 1017.7 1018.0 0.0
27/12:29am 4.6 3.4 4.5 99 0.0 CALM 0 0 0 0 1017.7 1018.0 0.0
27/12:00am 4.2 1.2 4.1 99 0.0 ENE 9 9 5 5 1017.6 1017.9 0.0
 
Date/Time
EST
Temp
°C
App
Temp
°C
Dew
Point
°C
Rel
Hum
%
Delta-T
°C
Wind Press
QNH
hPa
Press
MSL
hPa
Rain since
9am
mm
Dir  Spd
km/h
Gust
km/h
Spd
kts
Gust
kts
26/11:30pm 4.8 1.5 4.7 99 0.0 NNE 11 13 6 7 1017.6 1017.9 0.0
26/11:00pm 5.4 2.6 5.3 99 0.0 NNE 9 11 5 6 1017.9 1018.2 0.0
26/10:30pm 5.4 3.2 5.3 99 0.0 NNE 6 7 3 4 1018.0 1018.3 0.0
26/10:00pm 5.6 3.4 5.3 98 0.1 NNE 6 7 3 4 1018.0 1018.3 0.0
26/09:30pm 5.7 3.9 5.3 97 0.2 NNE 4 6 2 3 1018.1 1018.4 0.0
26/09:00pm 5.7 3.5 5.3 97 0.2 NNE 6 7 3 4 1018.1 1018.4 0.0
26/08:30pm 5.8 3.1 5.4 97 0.2 NNE 9 9 5 5 1018.1 1018.4 0.0
26/08:00pm 5.9 3.7 5.5 97 0.2 NNE 6 7 3 4 1018.2 1018.5 0.0
26/07:30pm 5.9 3.6 5.5 97 0.2 NNE 7 9 4 5 1018.0 1018.3 0.0
26/07:00pm 5.6 3.1 4.7 94 0.4 NNE 7 9 4 5 1018.0 1018.3 0.0
26/06:30pm 5.5 2.5 4.3 92 0.5 NNE 9 11 5 6 1017.9 1018.2 0.0
26/06:00pm 6.0 2.7 4.8 92 0.5 NNE 11 13 6 7 1017.9 1018.2 0.0
26/05:30pm 6.1 3.1 4.3 88 0.8 NNE 9 11 5 6 1017.9 1018.2 0.0
26/05:00pm 7.0 4.5 4.8 86 1.0 N 7 11 4 6 1018.1 1018.4 0.0
26/04:30pm 7.3 4.0 4.6 83 1.2 NNE 11 15 6 8 1018.0 1018.3 0.0
26/04:05pm 7.5 3.9 4.8 83 1.2 NNE 13 17 7 9 1018.0 1018.3 0.0
26/04:00pm 7.4 4.1 4.7 83 1.2 NNE 11 17 6 9 1018.1 1018.4 0.0
26/03:30pm 7.4 3.8 4.9 84 1.1 N 13 17 7 9 1018.3 1018.6 0.0
26/03:09pm 7.4 4.6 5.0 85 1.1 NNE 9 13 5 7 1018.4 1018.7 0.0
26/03:00pm 7.3 4.0 4.8 84 1.1 NNE 11 15 6 8 1018.5 1018.8 0.0
26/02:37pm 7.3 4.0 4.8 84 1.1 NNE 11 15 6 8 1018.6 1018.9 0.0
26/02:30pm 7.3 3.7 4.8 84 1.1 N 13 15 7 8 1018.6 1018.9 0.0
26/02:00pm 7.4 3.4 5.0 85 1.1 N 15 20 8 11 1019.2 1019.4 0.0
26/01:30pm 7.1 3.5 4.8 85 1.0 NNW 13 17 7 9 1019.4 1019.6 0.0
26/01:00pm 7.1 3.1 4.8 85 1.0 N 15 22 8 12 1019.7 1019.9 0.0
26/12:30pm 7.0 2.9 4.3 83 1.2 N 15 19 8 10 1019.8 1020.0 0.0
26/12:00pm 6.4 2.2 5.8 96 0.3 NNE 17 20 9 11 1019.9 1020.1 0.0
26/11:30am 6.5 3.2 6.5 100 0.0 NNE 13 19 7 10 1020.4 1020.6 0.0
26/11:26am 5.9 2.5 5.9 100 0.0 NNE 13 19 7 10 1020.4 1020.6 0.0
26/11:00am 4.8 2.5 4.7 99 0.0 SW 6 11 3 6 1020.8 1021.0 0.0
26/10:30am 3.2 0.6 3.1 99 0.0 SW 6 9 3 5 1021.3 1021.6 0.0
26/10:00am 2.9 0.0 2.8 99 0.0 SW 7 9 4 5 1021.9 1022.2 0.0
26/09:30am 2.3 -0.1 2.2 99 0.0 SW 4 7 2 4 1022.0 1022.3 0.0
26/09:00am 1.4 -0.4 1.3 99 0.0 CALM 0 0 0 0 1022.2 1022.5 0.0
26/08:39am 0.5 -1.4 0.4 99 0.0 CALM 0 0 0 0 1022.3 1022.6 0.0
26/08:30am 0.3 -1.7 0.2 99 0.0 CALM 0 0 0 0 1022.3 1022.6 0.0
26/08:00am -0.2 -2.2 -0.3 99 0.0 CALM 0 0 0 0 1022.4 1022.7 0.0
26/07:41am -0.4 -2.5 -0.5 99 0.0 CALM 0 0 0 0 1022.4 1022.7 0.0
26/07:30am -0.5 -2.6 -0.6 99 0.0 CALM 0 0 0 0 1022.3 1022.6 0.0
26/07:00am -0.9 -3.0 -1.0 99 0.0 CALM 0 0 0 0 1022.2 1022.5 0.0
26/06:30am -0.5 -2.6 -0.6 99 0.0 CALM 0 0 0 0 1021.9 1022.2 0.0
26/06:00am -0.2 -3.4 -0.3 99 0.0 SW 6 7 3 4 1021.6 1021.9 0.0
26/05:30am 0.0 -2.8 -0.1 99 0.0 SW 4 9 2 5 1021.4 1021.7 0.0
26/05:00am -0.6 -3.4 -0.7 99 0.0 SW 4 7 2 4 1021.5 1021.8 0.0
26/04:38am -0.8 -4.6 -0.9 99 0.0 SW 9 11 5 6 1021.3 1021.6 0.0
26/04:30am -0.7 -4.1 -0.8 99 0.0 SW 7 9 4 5 1021.1 1021.4 0.0
26/04:29am -0.7 -4.1 -0.8 99 0.0 SW 7 9 4 5 1021.1 1021.4 0.0
26/04:00am -0.7 -4.1 -0.8 99 0.0 SW 7 9 4 5 1020.8 1021.0 0.0
26/03:30am -0.3 -3.1 -0.4 99 0.0 SW 4 6 2 3 1020.7 1020.9 0.0
26/03:05am -0.2 -3.6 -0.3 99 0.0 SW 7 9 4 5 1021.2 1021.5 0.0
26/03:00am -0.1 -3.3 -0.2 99 0.0 SW 6 9 3 5 1021.3 1021.6 0.0
26/02:34am 0.0 -3.3 -0.1 99 0.0 SW 7 9 4 5 1021.6 1021.9 0.0
26/02:30am 0.1 -3.2 0.0 99 0.0 SW 7 9 4 5 1021.6 1021.9 0.0
26/02:13am 0.4 -2.7 0.3 99 0.0 SW 6 9 3 5 1021.7 1022.0 0.0
26/02:05am 0.7 -1.2 0.6 99 0.0 CALM 0 7 0 4 1021.7 1022.0 0.0
26/02:04am 0.6 -1.3 0.5 99 0.0 CALM 0 0 0 0 1021.7 1022.0 0.0
26/02:00am 0.3 -1.7 0.2 99 0.0 CALM 0 0 0 0 1021.7 1022.0 0.0
26/01:56am 0.5 -1.4 0.4 99 0.0 CALM 0 0 0 0 1021.7 1022.0 0.0
26/01:30am 0.8 -1.1 0.7 99 0.0 CALM 0 0 0 0 1021.8 1022.1 0.0
26/01:00am 0.5 -1.4 0.4 99 0.0 CALM 0 0 0 0 1021.9 1022.2 0.0
26/12:56am 0.5 -1.4 0.4 99 0.0 CALM 0 0 0 0 1021.9 1022.2 0.0
26/12:30am 0.9 -1.0 0.8 99 0.0 CALM 0 0 0 0 1022.3 1022.6 0.0
26/12:00am 1.4 -0.4 1.3 99 0.0 CALM 0 6 0 3 1022.5 1022.8 0.0
 
Date/Time
EST
Temp
°C
App
Temp
°C
Dew
Point
°C
Rel
Hum
%
Delta-T
°C
Wind Press
QNH
hPa
Press
MSL
hPa
Rain since
9am
mm
Dir  Spd
km/h
Gust
km/h
Spd
kts
Gust
kts
25/11:45pm 1.8 -0.7 1.7 99 0.0 SW 4 7 2 4 1022.6 1022.9 0.0
25/11:30pm 1.9 0.2 1.8 99 0.0 CALM 0 0 0 0 1022.6 1022.9 0.0
25/11:00pm 2.1 -0.9 2.0 99 0.0 SW 7 7 4 4 1022.5 1022.8 0.0
25/10:30pm 2.2 -0.6 2.1 99 0.0 SW 6 6 3 3 1022.7 1023.0 0.0
25/10:25pm 2.1 -0.3 2.0 99 0.0 SW 4 6 2 3 1022.7 1023.0 0.0
25/10:03pm 2.2 0.5 2.1 99 0.0 CALM 0 0 0 0 1022.7 1023.0 0.0
25/10:00pm 1.9 0.2 1.8 99 0.0 CALM 0 0 0 0 1022.8 1023.1 0.0
25/09:33pm 3.2 1.7 3.1 99 0.0 CALM 0 0 0 0 1022.8 1023.1 0.0
25/09:30pm 3.1 1.6 3.0 99 0.0 CALM 0 0 0 0 1022.7 1023.0 0.0
25/09:00pm 2.9 1.4 2.8 99 0.0 CALM 0 0 0 0 1022.7 1023.0 0.0
25/08:55pm 3.0 1.5 2.9 99 0.0 CALM 0 6 0 3 1022.8 1023.1 0.0
25/08:30pm 2.8 0.1 2.4 97 0.2 SW 6 7 3 4 1022.9 1023.2 0.0
25/08:00pm 4.2 1.7 3.6 96 0.2 SW 6 7 3 4 1022.9 1023.2 0.0
25/07:30pm 4.6 3.2 3.7 94 0.4 CALM 0 0 0 0 1022.8 1023.1 0.0
25/07:00pm 5.8 4.6 4.8 93 0.4 CALM 0 0 0 0 1022.9 1023.2 0.0
25/06:30pm 6.9 5.9 5.4 90 0.7 CALM 0 0 0 0 1022.7 1023.0 0.0
25/06:00pm 7.0 4.7 4.7 85 1.0 SW 6 6 3 3 1022.9 1023.2 0.0

Other Formats:

Comma delimited format used in spreadsheet applications
http://www.bom.gov.au/fwo/IDV60801/IDV60801.94874.axf

JavaScript Object Notation format (JSON) in row-major order
http://www.bom.gov.au/fwo/IDV60801/IDV60801.94874.json